Claudiu Puscas

Chefscout - Viitorul
17 Jul 2027
Samstag
Verarbeitung

Persönlichkeit

Anpassungsfähigkeit (7) Ehrgeiz (11) Kontroverse (2) Loyalität (14) Druck (18) Professionalität (17) Fairness (7) Temperament (3)

Profil

Trainerstil Demokratisch
Lizenz Kontinentale Pro
Entschlossenheit 3
Menschenführung 5
Motivation 7
Disziplin 5
Arbeitszufriedenheit
62%
Ermüdung
0%
Rolle Chefscout
Gehalt 40.3K p/W
Vertrag 14.03.2029

Leistung

Verhalten Gut
Trainingseffektivität
26%
Spielerentwicklung
30%
Verletzungsprävention
20%
Taktische Umsetzung
50%

Letzte Ereignisse

Nahm an einer Scouting-Besprechung teil jetzt
Nahm an einer Scouting-Besprechung teil 7T her
Empfahl ein Transferziel 7T her
Nahm an einer Scouting-Besprechung teil 14T her
Empfahl ein Transferziel 14T her
Nahm an einer Scouting-Besprechung teil 14T her
Nahm an einer Scouting-Besprechung teil 21T her
Legte dem Vorstand ein Dossier vor 21T her

Aktuell beobachtet

218
Spieler Verein Status Fähigkeit Vertrauen Beobachtet Zuletzt beobachtet Letzte Stimme
Lorent Tolaj Plymouth Argyle Aktiv 116 / 120 40% 5 21.06.2027 -
Aaron Collins Milton Keynes Dons Aktiv 122 / 117 40% 6 21.06.2027 -
Camillo Tavernelli Arezzo Verhandlung 113 / 113 40% 1 21.06.2027 -
Kelly Saravanan Salford City Aktiv 118 / 110 40% 2 14.06.2027 -
Rui Costa Port Vale Aktiv 112 / 113 40% 4 14.06.2027 -
Daniel Udoh Salford City Aktiv 105 / 103 40% 2 29.05.2027 -
Aaron Drinan Swindon Town Aktiv 108 / 109 40% 3 29.05.2027 -
Camilo Durán Bloemfontein Celtic Aktiv 112 / 124 40% 8 28.05.2027 -
Salah Mohsen El Masry Verloren 115 / 115 40% 10 28.05.2027 Beobachten
John Yeboah Venezia Aktiv 121 / 114 40% 5 28.05.2027 -
Niall Ennis Blackpool Aktiv 116 / 109 40% 2 27.05.2027 -
Giuseppe Di Serio Spezia Aktiv 124 / 126 40% 1 27.05.2027 -
Mees Rijks Bristol Rovers Aktiv 112 / 110 40% 4 26.05.2027 -
Lewis McCann Fleetwood Town Aktiv 95 / 104 40% 2 26.05.2027 -
Thalys Almería Aktiv 123 / 122 40% 1 26.05.2027 -
Sam Nombe Milton Keynes Dons Aktiv 109 / 107 40% 5 25.05.2027 -
Jérémy Le Douaron Palermo Aktiv 123 / 121 40% 2 25.05.2027 -
Malik Mothersille Stockport County Aktiv 112 / 120 40% 2 24.05.2027 -
Ettore Gliozzi Mantova Aktiv 121 / 111 40% 1 24.05.2027 -
Fashion Sakala MC Alger Aktiv 119 / 137 40% 4 23.05.2027 -
Chico Banza Zamalek Aktiv 105 / 107 40% 3 22.05.2027 -
Tammer Kumar West Bromwich Albion Aktiv 122 / 117 40% 2 22.05.2027 -
Justin Obikwu Queens Park Rangers Aktiv 96 / 107 40% 2 21.05.2027 -
Josh Koroma Leyton Orient Aktiv 107 / 101 40% 2 21.05.2027 -
Christian Saydee Wigan Athletic Aktiv 113 / 117 40% 1 21.05.2027 -
Silvio Merkaj Vicenza Aktiv 116 / 116 40% 3 19.05.2027 -
Kyle Wootton Stockport County Aktiv 121 / 122 40% 6 19.05.2027 -
Iwan Morgan Grimsby Town Aktiv 115 / 114 40% 5 19.05.2027 -
Callum Lang Preston Aktiv 112 / 121 40% 3 17.05.2027 -
Calum Kavanagh Oldham Athletic Aktiv 102 / 105 40% 3 17.05.2027 -
Aidomo Emakhu Oxford United Aktiv 116 / 120 40% 2 16.05.2027 -
David Okereke Cremonese Aktiv 125 / 125 40% 3 14.05.2027 -
Shayne Lavery Cambridge United Aktiv 105 / 103 40% 3 13.05.2027 -
Jalen Blesa Rio Ave Aktiv 118 / 123 40% 2 12.05.2027 -
Fabrizio Cavegn Bristol Rovers Aktiv 111 / 111 40% 2 11.05.2027 -
Yuki Ohashi Blackburn Rovers Aktiv 123 / 112 40% 1 11.05.2027 -
Isaac Success El Masry Aktiv 123 / 109 40% 1 10.05.2027 -
Jake Beesley Burton Albion Aktiv 96 / 98 40% 3 08.05.2027 -
Emil Riis Leicester City Aktiv 119 / 126 40% 1 08.05.2027 -
Florin Tănase Omonoia Aktiv 130 / 136 40% 4 05.05.2027 -
Harvey Blair Portsmouth Aktiv 122 / 120 40% 1 05.05.2027 -
Sam Bell Bristol City Aktiv 119 / 122 40% 2 02.05.2027 -
Javi Zarzo Gubbio Aktiv 105 / 93 40% 1 30.04.2027 -
Marcus Browne AFC Wimbledon Aktiv 112 / 105 40% 2 28.04.2027 -
Matteo Rover Reggiana Aktiv 119 / 120 40% 1 27.04.2027 -
Bradley Fink Wycombe Wanderers Aktiv 111 / 103 40% 1 26.04.2027 -
Matty Stevens AFC Wimbledon Aktiv 102 / 109 40% 3 22.04.2027 -
Ronan Hale Gillingham Aktiv 116 / 112 40% 1 20.04.2027 -
German Onugkha Rodina Aktiv 119 / 116 40% 4 19.04.2027 -
Elijah Adebayo Luton Town Aktiv 128 / 130 40% 6 17.04.2027 -
Marezi Portsmouth Aktiv 122 / 116 40% 3 15.04.2027 -
Giacomo Zecca Torres Aktiv 112 / 112 40% 1 13.04.2027 -
Tyreece Campbell Charlton Athletic Aktiv 116 / 127 40% 4 11.04.2027 -
Wandile Duba Maritzburg United Aktiv 114 / 98 40% 3 09.04.2027 -
Dale Taylor Blackpool Aktiv 116 / 110 40% 1 09.04.2027 -
David Miculescu FCSB Aktiv 123 / 120 40% 10 04.04.2027 Beobachten
Kamran Aliev SKA Khabarovsk Aktiv 98 / 102 40% 2 03.04.2027 -
Luther Tau SuperSport United Aktiv 102 / 110 40% 8 01.04.2027 -
Josh Coburn Millwall Aktiv 123 / 112 40% 2 31.03.2027 -
Lamine Cissé Peterborough United Aktiv 117 / 130 40% 4 30.03.2027 -
Ali Youssef Apollon Aktiv 119 / 119 40% 5 29.03.2027 -
Stephen Humphrys Bradford City Aktiv 111 / 113 40% 3 29.03.2027 -
Sam Smith Wrexham Aktiv 114 / 116 40% 1 28.03.2027 -
Dom Ballard Leyton Orient Aktiv 115 / 131 40% 3 25.03.2027 -
Giorgi Kvernadze Frosinone Aktiv 128 / 119 40% 1 20.03.2027 -
Oli McBurnie Hull City Aktiv 137 / 135 40% 1 19.03.2027 -
Lamine Diakité Djoliba Aktiv 97 / 95 40% 1 19.03.2027 -
Mihailo Ivanović Millwall Aktiv 128 / 124 40% 2 18.03.2027 -
Samuel Tetteh Ashanti Gold Aktiv 100 / 105 40% 1 17.03.2027 -
Victor Adeboyejo El Masry Aktiv 98 / 99 40% 1 16.03.2027 -
Samuel Kalu Botev Plovdiv Aktiv 117 / 109 40% 6 15.03.2027 -
Armstrong Oko-Flex Levski Aktiv 114 / 124 40% 2 15.03.2027 -
Hamdi Labidi Olympique Akbou Aktiv 99 / 93 40% 2 15.03.2027 -
Mathias Jørgensen Blackburn Rovers Aktiv 128 / 116 40% 2 13.03.2027 -
Stephen Odey Ittihad Aktiv 124 / 116 40% 2 12.03.2027 -
Jamie Reid Stevenage Aktiv 102 / 112 40% 1 12.03.2027 -
Friday Ubong Hearts of Oak Aktiv 113 / 90 40% 6 11.03.2027 -
Davis Keillor-Dunn Wrexham Aktiv 112 / 116 40% 1 11.03.2027 -
Enzo López Cosenza Aktiv 111 / 105 40% 1 05.03.2027 -
Victor Torp Coventry City Aktiv 122 / 133 40% 1 04.03.2027 -
Brayan Gil Baltika Aktiv 128 / 130 40% 1 26.02.2027 -
Ante Aralica Lokomotiv Sofia Aktiv 105 / 99 40% 2 18.02.2027 -
Etiosa Ighodaro Kaizer Chiefs Aktiv 106 / 99 40% 1 17.02.2027 -
François Kamano Sochi Aktiv 116 / 112 40% 1 12.02.2027 -
Oleksii Hutsuliak Polissia Aktiv 133 / 120 40% 4 10.02.2027 -
Leandro Godoy CSKA Sofia Aktiv 117 / 111 40% 1 07.02.2027 -
Edarlyn Reyes Arsenal Tula Aktiv 105 / 113 40% 1 06.02.2027 -
Patrick Schmidt Tarxien Rainbows Aktiv 100 / 105 40% 1 05.02.2027 -
Marin Benko Zadar Aktiv 129 / 126 40% 1 03.02.2027 -
Iqraam Rayners Mamelodi Sundowns Aktiv 130 / 141 40% 4 02.02.2027 Beobachten
Ryan Hedges Derby County Aktiv 121 / 112 40% 1 26.01.2027 -
Matei Goga Universitatea Craiova Aktiv 75 / 89 72% 1 25.01.2027 Befürworten
Kristoffer Zachariassen Ferencvaros Aktiv 121 / 128 40% 1 18.01.2027 -
Bojan Radulović Huddersfield Town Aktiv 116 / 120 40% 3 01.01.2027 -
Maicon Levski Aktiv 126 / 131 40% 2 28.12.2026 -
Ştefan Bană ND Gorica Aktiv 91 / 97 40% 2 27.12.2026 -
Andreiaş Calcan Lucko Aktiv 105 / 100 40% 2 26.12.2026 -
Zoran Mitrov Universitatea Craiova Aktiv 112 / 108 40% 2 26.12.2026 -
Oussama Idrissi Ferencvaros Aktiv 135 / 132 40% 6 25.12.2026 -
Heriberto Tavares Universitatea Craiova Aktiv 107 / 111 40% 1 25.12.2026 -
Lebohang Maboe Kaizer Chiefs Aktiv 116 / 125 40% 2 24.12.2026 -
Mduduzi Shabalala Kaizer Chiefs Aktiv 108 / 107 40% 2 23.12.2026 -
Mamoudou Karamoko Dinamo Bucharest Aktiv 117 / 117 40% 12 22.12.2026 -
Manu Nieto Andorra Aktiv 112 / 116 40% 1 22.12.2026 -
Thulani Mabaso Chippa United Aktiv 115 / 118 40% 1 22.12.2026 -
Nduduzo Sibiya Golden Arrows Aktiv 109 / 122 40% 2 20.12.2026 -
Jonathan Okoronkwo Torpedo Moscow Aktiv 102 / 106 40% 1 20.12.2026 -
Artem Slesar Zorya Aktiv 118 / 107 40% 1 18.12.2026 -
Lebo Mothiba Mamelodi Sundowns Aktiv 118 / 106 40% 1 17.12.2026 -
Velemseni Ndwandwe Golden Arrows Aktiv 101 / 98 40% 1 17.12.2026 -
Julio Alonso Huesca Aktiv 115 / 127 40% 1 17.12.2026 -
Cătălin Cîrjan Dinamo Bucharest Aktiv 120 / 115 40% 3 16.12.2026 -
Otar Kiteishvili Sturm Graz Aktiv 129 / 134 40% 1 16.12.2026 -
Borislav Tsonev CSKA 1948 Aktiv 115 / 107 40% 1 13.12.2026 -
Jens Petter Hauge Bodo/Glimt Aktiv 130 / 136 40% 3 12.12.2026 -
Alberto Soro Dinamo Bucharest Aktiv 124 / 108 40% 5 11.12.2026 -
Alin Fică CFR Cluj Aktiv 115 / 127 40% 2 10.12.2026 -
Ştefan Baiaram Universitatea Craiova Verloren 129 / 121 40% 5 09.12.2026 -
Denzel Jubitana Neftchi Aktiv 115 / 118 40% 1 09.12.2026 -
Leo Goglichidze Rodina Aktiv 114 / 116 40% 1 09.12.2026 -
Alexandru Cicâldău Universitatea Craiova Aktiv 121 / 125 40% 2 08.12.2026 -
Ştefan Bodişteanu Botosani Aktiv 112 / 111 40% 1 08.12.2026 -
Reda Khadra Qarabag Aktiv 142 / 140 40% 1 07.12.2026 Mehr Infos nötig
Meriton Korenica CFR Cluj Aktiv 131 / 133 40% 4 06.12.2026 -
Ádin Molnár MTK Budapest Aktiv 115 / 109 40% 2 05.12.2026 -
Itumeleng Mkhize Platinum Stars Aktiv 122 / 116 40% 2 05.12.2026 -
Ammar Ramadan DAC Dunajska Streda Aktiv 126 / 128 40% 3 04.12.2026 -
Andile Manyama Ajax Cape Town Aktiv 118 / 93 40% 3 03.12.2026 -
Daniil Agureev Amkar Aktiv 92 / 81 40% 1 03.12.2026 -
Seedy Jatta Sturm Graz Aktiv 118 / 116 40% 2 02.12.2026 -
Marius Corbu Bekescsaba Aktiv 95 / 99 40% 1 30.11.2026 -
Vegard Erlien Tromso Aktiv 132 / 131 40% 2 29.11.2026 -
Martins Júnior Zira Aktiv 110 / 113 40% 1 29.11.2026 -
Daniel Harvie Wycombe Wanderers Aktiv 114 / 111 40% 1 29.11.2026 -
Oday Dabbagh Zamalek Aktiv 97 / 96 40% 1 29.11.2026 -
Bernard Tekpetey Ludogorets Aktiv 123 / 132 40% 2 26.11.2026 -
Natanaël Thio Petrolul Aktiv 113 / 106 40% 1 26.11.2026 -
Achraf Bencharki Rapid Wien Aktiv 127 / 117 40% 1 25.11.2026 -
Nuno Santos Mamelodi Sundowns Aktiv 131 / 126 40% 2 24.11.2026 -
Bahlul Mammadov Inter Aktiv 107 / 104 40% 3 23.11.2026 -
Cristian Mihai Dinamo Bucharest Aktiv 107 / 103 40% 1 23.11.2026 -
Carlos Paraco Metalist Aktiv 109 / 109 40% 1 23.11.2026 -
Tshepang Moremi Orlando Pirates Aktiv 125 / 105 40% 1 18.11.2026 -
Aldair Ferreira Astra Aktiv 107 / 106 40% 1 18.11.2026 -
Carlos Mora Universitatea Craiova Aktiv 126 / 123 40% 1 16.11.2026 -
Sebastian Mailat Botosani Aktiv 117 / 119 40% 1 14.11.2026 -
Paul Nita Astra Aktiv 103 / 98 40% 1 14.11.2026 -
Tomás Chancalay Minnesota United FC Aktiv 115 / 113 40% 1 14.11.2026 -
Milán Tóth Vasas Aktiv 112 / 115 40% 1 13.11.2026 -
Assad Al Hamlawi FCSB Aktiv 121 / 111 40% 1 10.11.2026 -
Jesper Cornelius IK Start Aktiv 97 / 109 40% 1 10.11.2026 -
Matej Trusa DAC Dunajska Streda Aktiv 109 / 107 40% 1 10.11.2026 -
Chinedu Geoffrey Krylya Sovetov Aktiv 117 / 116 40% 1 10.11.2026 -
Liel Abada Charlotte Football Club Aktiv 125 / 140 40% 2 09.11.2026 -
Krisztofer Horváth Ujpest Aktiv 113 / 113 40% 1 09.11.2026 -
Johannes Eggestein Austria Wien Aktiv 133 / 131 40% 1 07.11.2026 -
Ola Brynhildsen Bodo/Glimt Aktiv 135 / 136 40% 1 07.11.2026 -
Jerome Karelse Golden Arrows Aktiv 92 / 93 40% 1 07.11.2026 -
Zizo Al Ahly Aktiv 125 / 132 40% 1 04.11.2026 -
Andrei Cordea CFR Cluj Aktiv 120 / 118 40% 1 04.11.2026 -
Aljoša Matko Ujpest Aktiv 113 / 119 40% 1 04.11.2026 -
Isaac Matondo Koper Aktiv 109 / 105 40% 3 01.11.2026 -
Yegor Golenkov Rostov Aktiv 119 / 122 40% 1 30.10.2026 Mehr Infos nötig
Eren Aydın Zira Aktiv 118 / 121 40% 1 30.10.2026 -
Vladimir Nikolov Slavia Sofia Aktiv 112 / 110 40% 2 29.10.2026 -
Chuchu Ramírez Nacional Aktiv 137 / 130 40% 2 26.10.2026 -
Marko Brest Olimpija Ljubljana Aktiv 109 / 108 40% 1 25.10.2026 -
Breel Embolo Atlanta United FC Aktiv 148 / 137 40% 1 24.10.2026 -
Claudy M'Buyi Rapid Wien Aktiv 111 / 117 40% 1 24.10.2026 -
Iuri Medeiros Ujpest Aktiv 118 / 115 40% 1 23.10.2026 -
Dorin Dragusin Pandurii Aktiv 117 / 122 40% 1 23.10.2026 -
Yeangel Montero Naxxar Lions Aktiv 102 / 97 40% 1 20.10.2026 -
Musa Qurbanlı Qarabag Aktiv 120 / 113 40% 1 20.10.2026 -
Vladislav Sarveli Nizhniy Novgorod Aktiv 107 / 110 40% 1 16.10.2026 -
Matthias Verreth Dinamo Bucharest Aktiv 125 / 113 40% 2 15.10.2026 -
Andrei Dumiter Botosani Aktiv 102 / 92 40% 1 15.10.2026 -
Marlon Mustapha Altach Aktiv 108 / 115 40% 1 13.10.2026 -
Stephen Afrifa Sporting Kansas City Aktiv 94 / 103 40% 1 12.10.2026 -
Philipp Alaba Austria Wien Aktiv 127 / 124 40% 1 12.10.2026 -
Sveinn Aron Guðjohnsen Vikingur Aktiv 112 / 121 40% 3 11.10.2026 -
Simon Elisor Universitatea Craiova Aktiv 126 / 114 40% 2 10.10.2026 -
Pedro Marques Apollon Aktiv 121 / 109 40% 1 10.10.2026 -
Renaldo Cephas Qarabag Aktiv 110 / 120 40% 2 09.10.2026 -
Vyacheslav Grulev Nizhniy Novgorod Aktiv 113 / 118 40% 1 09.10.2026 -
Noah Botic Austria Wien Aktiv 115 / 114 40% 1 08.10.2026 -
Radek Šiler Podbrezova Aktiv 111 / 111 40% 1 06.10.2026 -
Dominik Kocsis Debrecen Aktiv 104 / 113 40% 1 06.10.2026 -
Dávid Ďuriš Rosenborg Aktiv 111 / 117 40% 1 05.10.2026 -
Marcelo Torres Gimnasia La Plata Aktiv 115 / 110 40% 2 04.10.2026 -
Oscar Osorio Atletico Venezuela Aktiv 112 / 128 40% 1 04.10.2026 -
Alexandr Rudenko Lokomotiv Moscow Aktiv 117 / 112 40% 1 03.10.2026 -
Alexei Dominguez Pachuca Aktiv 104 / 112 40% 1 03.10.2026 -
Veljko Birmančević Ferencvaros Aktiv 136 / 124 40% 2 01.10.2026 -
Enzo Larrosa Independiente Medellin Aktiv 106 / 97 40% 1 01.10.2026 -
Federico Girotti Alianza Lima Aktiv 126 / 128 40% 1 29.09.2026 -
Paul Ngongo Aalesund Aktiv 111 / 88 40% 1 28.09.2026 -
Elias Hoff Melkersen Stromsgodset Aktiv 104 / 117 40% 1 27.09.2026 -
Alexandru Pop Dinamo Bucharest Aktiv 96 / 107 40% 2 26.09.2026 -
Gamid Agalarov Dinamo Makhachkala Aktiv 111 / 107 40% 1 25.09.2026 -
Fabricio Oviedo Rosario Central Aktiv 116 / 110 40% 1 24.09.2026 -
Andreas Helmersen Bodo/Glimt Aktiv 119 / 134 40% 1 24.09.2026 -
Benjamin Tetteh NK Maribor Aktiv 110 / 113 40% 1 21.09.2026 -
Timur Suleimanov Rostov Aktiv 113 / 110 40% 1 20.09.2026 -
Emil Breivik Molde Aktiv 135 / 143 40% 1 20.09.2026 -
Antonio Galeano Remo Stars Aktiv 128 / 115 40% 1 20.09.2026 -
Hervin Ongenda Botosani Aktiv 113 / 114 40% 1 19.09.2026 -
Ramiro Ruiz Rodríguez Atlético Tucumán Aktiv 133 / 135 40% 2 17.09.2026 -
Asanele Velebayi Kaizer Chiefs Aktiv 111 / 94 40% 1 14.09.2026 -
George Puşcaş Dinamo Bucharest Aktiv 129 / 125 40% 2 13.09.2026 -
Nouhou Seattle Sounders Aktiv 121 / 107 40% 1 10.09.2026 -
Relebohile Mofokeng Orlando Pirates Aktiv 108 / 129 40% 1 10.09.2026 -
Yanela Mbuthuma Orlando Pirates Aktiv 96 / 120 40% 1 09.09.2026 -
David Kalokoh Ajax Aktiv 114 / 127 40% 1 09.09.2026 -
Marcos Camarda Santiago Wanderers Aktiv 115 / 116 40% 1 31.08.2026 -
Mamadou Thiam FCSB Aktiv 115 / 115 40% 1 24.08.2026 -
Hugo Cuypers Monterrey Aktiv 126 / 129 40% 1 01.08.2026 -
Lisandro Cabrera Maipú Aktiv 125 / 119 40% 1 01.08.2026 -
Joe Gelhardt Hull City Aktiv 125 / 121 40% 1 01.08.2026 -